Time;durP1;ratioP1;P1;durP2;ratioP2;P2;SDS_P1;SDS_P2;PMS_P1;PMS_P2;Temp;Humidity;BMP_temperature;BMP_pressure;BME280_temperature;BME280_humidity;BME280_pressure;Samples;Min_cycle;Max_cycle;Signal;HPM_P1;HPM_P2
2022/09/11 00:00:50;;;;;;;0.20;0.20;;;13.70;99.90;;;;;;5115555;28;20110;-75
2022/09/11 00:03:17;;;;;;;0.10;0.10;;;13.70;99.90;;;;;;5096878;28;20031;-75
2022/09/11 00:05:43;;;;;;;0.30;0.30;;;13.70;99.90;;;;;;5115076;28;20511;-74
2022/09/11 00:08:12;;;;;;;3.30;1.58;;;13.70;99.90;;;;;;5115173;28;20024;-74
2022/09/11 00:10:40;;;;;;;0.75;0.70;;;13.60;99.90;;;;;;5114783;28;20032;-74
2022/09/11 00:13:11;;;;;;;0.28;0.25;;;13.60;99.90;;;;;;5114811;28;20125;-74
2022/09/11 00:15:43;;;;;;;0.25;0.25;;;13.50;99.90;;;;;;5096765;28;20027;-76
2022/09/11 00:18:12;;;;;;;0.38;0.38;;;13.50;99.90;;;;;;5114288;28;20047;-75
2022/09/11 00:20:38;;;;;;;0.47;0.40;;;13.60;99.90;;;;;;5114960;28;20379;-76
2022/09/11 00:23:04;;;;;;;0.20;0.20;;;13.60;99.90;;;;;;5096588;28;20060;-75
2022/09/11 00:25:39;;;;;;;0.40;0.40;;;13.60;99.90;;;;;;5114811;28;20103;-76
2022/09/11 00:28:06;;;;;;;0.25;0.25;;;13.60;99.90;;;;;;5115005;28;20028;-74
2022/09/11 00:30:32;;;;;;;0.35;0.35;;;13.70;99.90;;;;;;5096325;28;20031;-74
2022/09/11 00:32:58;;;;;;;0.22;0.22;;;13.70;99.90;;;;;;5096424;28;20019;-76
2022/09/11 00:35:24;;;;;;;4.88;0.40;;;13.70;99.90;;;;;;5096306;28;20038;-74
2022/09/11 00:37:50;;;;;;;1.80;0.50;;;13.70;99.90;;;;;;5096329;28;20027;-75
2022/09/11 00:40:17;;;;;;;0.40;0.40;;;13.70;99.90;;;;;;5114655;28;20023;-74
2022/09/11 00:42:43;;;;;;;0.10;0.10;;;13.70;99.90;;;;;;5095895;28;20066;-75
2022/09/11 00:45:26;;;;;;;0.90;0.70;;;13.60;99.90;;;;;;5096089;28;20024;-76
2022/09/11 00:47:58;;;;;;;0.30;0.30;;;13.50;99.90;;;;;;5114375;28;20015;-76
2022/09/11 00:50:28;;;;;;;0.40;0.40;;;13.60;99.90;;;;;;5114525;28;20028;-74
2022/09/11 00:52:59;;;;;;;0.65;0.32;;;13.60;99.90;;;;;;5114374;28;20229;-74
2022/09/11 00:55:29;;;;;;;0.75;0.43;;;13.50;99.90;;;;;;5114652;28;20078;-74
2022/09/11 00:58:14;;;;;;;0.40;0.40;;;13.50;99.90;;;;;;5114334;28;20015;-74
2022/09/11 01:00:43;;;;;;;0.32;0.32;;;13.50;99.90;;;;;;5114250;28;20106;-74
2022/09/11 01:03:09;;;;;;;5.43;0.43;;;13.50;99.90;;;;;;5114068;28;20460;-74
2022/09/11 01:05:38;;;;;;;0.40;0.40;;;13.50;99.90;;;;;;5113977;28;20051;-74
2022/09/11 01:08:05;;;;;;;1.40;1.30;;;13.50;99.90;;;;;;5096019;28;20030;-73
2022/09/11 01:10:54;;;;;;;1.65;0.43;;;13.40;99.90;;;;;;5114134;28;20081;-73
2022/09/11 01:13:38;;;;;;;0.38;0.38;;;13.40;99.90;;;;;;5114117;28;20019;-74
2022/09/11 01:16:24;;;;;;;0.38;0.38;;;13.40;99.90;;;;;;5114035;28;20030;-75
2022/09/11 01:19:30;;;;;;;0.15;0.15;;;13.30;99.90;;;;;;5114159;28;20141;-74
2022/09/11 01:22:43;;;;;;;4.68;1.42;;;13.30;99.90;;;;;;5090270;28;20032;-73
2022/09/11 01:25:14;;;;;;;0.47;0.47;;;13.20;99.90;;;;;;5091541;28;20038;-74
2022/09/11 01:27:41;;;;;;;0.20;0.20;;;13.20;99.90;;;;;;5114369;28;20012;-74
2022/09/11 01:30:14;;;;;;;0.22;0.22;;;13.20;99.90;;;;;;5100188;28;20095;-75
2022/09/11 01:33:20;;;;;;;0.20;0.20;;;13.00;99.90;;;;;;5099856;28;20476;-74
2022/09/11 01:36:09;;;;;;;0.30;0.30;;;13.00;99.90;;;;;;5050845;28;20388;-74
2022/09/11 01:38:38;;;;;;;0.45;0.45;;;12.90;99.90;;;;;;5117917;28;20043;-74
2022/09/11 01:41:09;;;;;;;0.50;0.50;;;12.80;99.90;;;;;;5117905;28;20502;-74
2022/09/11 01:43:43;;;;;;;0.40;0.40;;;12.60;99.90;;;;;;5099653;28;20019;-76
2022/09/11 01:46:11;;;;;;;0.47;0.47;;;12.50;99.90;;;;;;5117941;28;20031;-74
2022/09/11 01:48:52;;;;;;;0.40;0.40;;;12.50;99.90;;;;;;5117899;28;20024;-74
2022/09/11 01:51:26;;;;;;;0.40;0.40;;;12.50;99.90;;;;;;5117892;28;20476;-74
2022/09/11 01:53:55;;;;;;;1.27;0.63;;;12.40;99.90;;;;;;5099323;28;20057;-76
2022/09/11 01:56:33;;;;;;;0.52;0.52;;;12.10;99.90;;;;;;5117554;28;20495;-76
2022/09/11 01:59:04;;;;;;;3.63;0.35;;;12.30;99.90;;;;;;5117610;28;20107;-75
2022/09/11 02:01:33;;;;;;;0.55;0.55;;;12.20;99.90;;;;;;5117525;28;20035;-75
2022/09/11 02:04:19;;;;;;;0.98;0.32;;;12.20;99.90;;;;;;5117384;28;20031;-76
2022/09/11 02:07:03;;;;;;;0.63;0.47;;;12.10;99.90;;;;;;5117634;28;20542;-75
2022/09/11 02:09:49;;;;;;;1.05;0.70;;;12.10;99.90;;;;;;5117396;28;20035;-74
2022/09/11 02:12:19;;;;;;;0.30;0.30;;;12.10;99.90;;;;;;5117379;28;20015;-74
2022/09/11 02:14:48;;;;;;;0.30;0.30;;;12.00;99.90;;;;;;5117292;28;20468;-74
2022/09/11 02:17:35;;;;;;;1.08;0.75;;;12.00;99.90;;;;;;5117271;28;20053;-74
2022/09/11 02:20:01;;;;;;;0.55;0.55;;;12.00;99.90;;;;;;5117476;28;20035;-76
2022/09/11 02:22:28;;;;;;;0.68;0.60;;;12.00;99.90;;;;;;5117118;28;20020;-76
2022/09/11 02:24:54;;;;;;;0.30;0.30;;;12.00;99.90;;;;;;5117145;28;20032;-75
2022/09/11 02:27:25;;;;;;;1.30;0.43;;;12.00;99.90;;;;;;5117050;28;20054;-76
2022/09/11 02:29:52;;;;;;;0.60;0.60;;;12.00;99.90;;;;;;5098757;28;20035;-74
2022/09/11 02:32:19;;;;;;;0.57;0.47;;;12.00;99.90;;;;;;5116952;28;20012;-76
2022/09/11 02:34:47;;;;;;;0.90;0.80;;;12.00;99.90;;;;;;5116783;28;20027;-75
2022/09/11 02:37:17;;;;;;;0.77;0.50;;;12.10;99.90;;;;;;5117474;28;20099;-75
2022/09/11 02:40:15;;;;;;;0.80;0.75;;;12.10;99.90;;;;;;5097612;28;20426;-75
2022/09/11 02:42:54;;;;;;;0.60;0.60;;;;;;;;;;5117768;28;20050;-74
2022/09/11 02:45:37;;;;;;;0.65;0.43;;;12.20;99.90;;;;;;5119177;28;20020;-74
2022/09/11 02:48:21;;;;;;;1.25;1.15;;;12.20;99.90;;;;;;5119846;28;20072;-76
2022/09/11 02:51:08;;;;;;;0.22;0.22;;;12.30;99.90;;;;;;5118771;28;20369;-75
2022/09/11 02:54:05;;;;;;;0.82;0.82;;;12.40;99.90;;;;;;5118486;28;20098;-73
2022/09/11 02:56:59;;;;;;;3.83;0.70;;;12.50;99.90;;;;;;5117083;28;20059;-74
2022/09/11 02:59:32;;;;;;;2.00;0.80;;;12.70;99.90;;;;;;5107165;28;20032;-74
2022/09/11 03:02:00;;;;;;;0.20;0.20;;;12.70;99.90;;;;;;5116513;28;20024;-74
2022/09/11 03:04:33;;;;;;;2.75;0.28;;;12.80;99.90;;;;;;5116398;28;20043;-74
2022/09/11 03:06:59;;;;;;;0.63;0.50;;;12.90;99.90;;;;;;5098141;28;20055;-74
2022/09/11 03:09:25;;;;;;;1.13;0.60;;;12.90;99.90;;;;;;5116234;28;20037;-75
2022/09/11 03:11:51;;;;;;;0.57;0.50;;;12.90;99.90;;;;;;5116486;28;20023;-74
2022/09/11 03:14:16;;;;;;;0.52;0.32;;;12.90;99.90;;;;;;5116240;28;20027;-74
2022/09/11 03:16:42;;;;;;;0.65;0.65;;;13.10;99.90;;;;;;5116390;28;20376;-74
2022/09/11 03:19:08;;;;;;;0.77;0.77;;;13.10;99.90;;;;;;5097833;28;20464;-74
2022/09/11 03:21:34;;;;;;;0.45;0.45;;;13.20;99.90;;;;;;5097792;28;20403;-74
2022/09/11 03:24:00;;;;;;;0.20;0.20;;;13.30;99.90;;;;;;5116137;28;20024;-74
2022/09/11 03:26:26;;;;;;;0.40;0.40;;;13.40;99.90;;;;;;5097721;28;20019;-75
2022/09/11 03:28:55;;;;;;;0.40;0.40;;;13.50;99.90;;;;;;5115804;28;20028;-74
2022/09/11 03:31:20;;;;;;;0.20;0.20;;;13.50;99.90;;;;;;5115747;28;20024;-74
2022/09/11 03:33:46;;;;;;;0.38;0.38;;;13.70;99.90;;;;;;5097615;28;20026;-73
2022/09/11 03:36:12;;;;;;;1.48;0.32;;;13.60;99.90;;;;;;5115960;28;20153;-76
2022/09/11 03:38:38;;;;;;;11.75;0.60;;;13.60;99.90;;;;;;5115869;28;20438;-75
2022/09/11 03:41:04;;;;;;;0.30;0.30;;;13.70;99.90;;;;;;5116034;28;20030;-73
2022/09/11 03:43:30;;;;;;;0.57;0.35;;;13.70;99.90;;;;;;5115831;28;20490;-75
2022/09/11 03:45:56;;;;;;;1.85;1.42;;;13.80;99.90;;;;;;5115513;28;20095;-75
2022/09/11 03:48:24;;;;;;;1.20;0.75;;;13.80;99.90;;;;;;5115393;28;20048;-77
2022/09/11 03:50:50;;;;;;;0.70;0.70;;;13.90;99.90;;;;;;5097108;28;20536;-76
2022/09/11 03:53:15;;;;;;;6.45;0.82;;;13.90;99.90;;;;;;5115554;28;20111;-75
2022/09/11 03:55:41;;;;;;;0.32;0.32;;;13.90;99.90;;;;;;5097161;28;20384;-75
2022/09/11 03:58:08;;;;;;;0.60;0.60;;;13.90;99.90;;;;;;5115394;28;20081;-74
2022/09/11 04:00:35;;;;;;;5.15;0.65;;;13.90;99.90;;;;;;5115717;28;20046;-74
2022/09/11 04:03:01;;;;;;;2.05;1.00;;;14.00;99.90;;;;;;5115247;28;20051;-75
2022/09/11 04:05:26;;;;;;;2.78;0.32;;;13.90;99.90;;;;;;5093389;28;20083;-75
2022/09/11 04:07:54;;;;;;;0.35;0.35;;;13.90;99.90;;;;;;5095104;28;20028;-76
2022/09/11 04:10:20;;;;;;;3.10;0.82;;;13.90;99.90;;;;;;5094653;28;20034;-75
2022/09/11 04:12:46;;;;;;;0.40;0.28;;;13.90;99.90;;;;;;5094777;28;20407;-75
2022/09/11 04:15:12;;;;;;;0.20;0.20;;;13.90;99.90;;;;;;5095090;28;20023;-75
2022/09/11 04:17:38;;;;;;;0.30;0.30;;;13.80;99.90;;;;;;5094568;28;20381;-76
2022/09/11 04:20:04;;;;;;;0.40;0.40;;;13.80;99.90;;;;;;5094439;28;20024;-75
2022/09/11 04:22:30;;;;;;;0.15;0.15;;;13.80;99.90;;;;;;5094481;28;20415;-76
2022/09/11 04:24:56;;;;;;;1.33;0.95;;;13.80;99.90;;;;;;5094378;28;20020;-75
2022/09/11 04:27:23;;;;;;;0.28;0.28;;;13.70;99.90;;;;;;5094390;28;20031;-74
2022/09/11 04:29:49;;;;;;;1.90;0.98;;;13.60;99.90;;;;;;5094388;28;20067;-74
2022/09/11 04:32:15;;;;;;;0.80;0.38;;;13.60;99.90;;;;;;5094682;28;20020;-74
2022/09/11 04:34:41;;;;;;;0.85;0.60;;;13.50;99.90;;;;;;5094499;28;20358;-74
2022/09/11 04:37:06;;;;;;;4.03;1.05;;;13.40;99.90;;;;;;5094303;28;20020;-74
2022/09/11 04:39:33;;;;;;;0.45;0.45;;;13.30;99.90;;;;;;5094305;28;20024;-74
2022/09/11 04:42:00;;;;;;;0.73;0.73;;;13.20;99.90;;;;;;5094202;28;20030;-74
2022/09/11 04:44:28;;;;;;;0.80;0.52;;;13.10;99.90;;;;;;5092793;28;20027;-74
2022/09/11 04:46:55;;;;;;;2.92;0.70;;;;;;;;;;5094243;28;20024;-74
2022/09/11 04:49:21;;;;;;;1.75;0.63;;;13.10;99.90;;;;;;5094050;28;20123;-74
2022/09/11 04:51:46;;;;;;;1.02;0.60;;;13.10;99.90;;;;;;5094550;28;20480;-74
2022/09/11 04:54:14;;;;;;;1.48;0.85;;;13.00;99.90;;;;;;5094020;28;20032;-73
2022/09/11 04:56:40;;;;;;;0.65;0.35;;;13.10;99.90;;;;;;5094046;28;20020;-73
2022/09/11 04:59:14;;;;;;;0.45;0.43;;;13.10;99.90;;;;;;5093972;28;20016;-75
2022/09/11 05:01:42;;;;;;;0.85;0.30;;;13.10;99.90;;;;;;5093871;28;20020;-73
2022/09/11 05:04:11;;;;;;;0.98;0.60;;;13.10;99.90;;;;;;5092089;28;20050;-74
2022/09/11 05:06:37;;;;;;;0.20;0.20;;;13.10;99.90;;;;;;5094023;28;20477;-73
2022/09/11 05:09:07;;;;;;;0.20;0.20;;;13.10;99.90;;;;;;5093842;28;20036;-73
2022/09/11 05:11:33;;;;;;;0.40;0.40;;;13.00;99.90;;;;;;5093835;28;20024;-73
2022/09/11 05:13:59;;;;;;;4.25;0.35;;;12.90;99.90;;;;;;5093661;28;20103;-74
2022/09/11 05:16:27;;;;;;;0.57;0.57;;;12.70;99.90;;;;;;5093646;28;20125;-73
2022/09/11 05:18:54;;;;;;;0.80;0.80;;;12.80;99.90;;;;;;5093619;28;20023;-74
2022/09/11 05:21:21;;;;;;;0.47;0.47;;;12.80;99.90;;;;;;5093762;28;20028;-73
2022/09/11 05:23:49;;;;;;;0.57;0.30;;;12.70;99.90;;;;;;5094158;28;20051;-73
2022/09/11 05:26:24;;;;;;;0.40;0.40;;;12.70;99.90;;;;;;5093722;28;20028;-73
2022/09/11 05:28:58;;;;;;;0.30;0.30;;;12.60;99.90;;;;;;5093759;28;20016;-74
2022/09/11 05:31:24;;;;;;;1.00;0.75;;;12.60;99.90;;;;;;5093634;28;20386;-73
2022/09/11 05:33:51;;;;;;;5.85;1.85;;;12.60;99.90;;;;;;5093672;28;20020;-74
2022/09/11 05:36:17;;;;;;;0.20;0.20;;;;;;;;;;5093484;28;20107;-73
2022/09/11 05:38:43;;;;;;;0.32;0.25;;;;;;;;;;5092397;28;20024;-74
2022/09/11 05:41:11;;;;;;;0.57;0.57;;;12.60;99.90;;;;;;5093414;28;20032;-73
2022/09/11 05:43:38;;;;;;;0.68;0.40;;;12.50;99.90;;;;;;5093259;28;20506;-73
2022/09/11 05:46:05;;;;;;;0.60;0.60;;;12.60;99.90;;;;;;5092217;28;20032;-76
2022/09/11 05:48:32;;;;;;;0.93;0.70;;;12.60;99.90;;;;;;5093479;28;20146;-75
2022/09/11 05:51:00;;;;;;;0.40;0.40;;;12.50;99.90;;;;;;5093266;28;20032;-75
2022/09/11 05:53:27;;;;;;;0.28;0.28;;;;;;;;;;5093464;28;20016;-75
2022/09/11 05:55:53;;;;;;;0.38;0.38;;;12.50;99.90;;;;;;5093334;28;20028;-74
2022/09/11 05:58:20;;;;;;;0.30;0.30;;;12.60;99.90;;;;;;5093320;28;20020;-76
2022/09/11 06:00:46;;;;;;;0.38;0.38;;;12.80;99.90;;;;;;5093287;28;20464;-74
2022/09/11 06:03:13;;;;;;;0.85;0.63;;;12.90;99.90;;;;;;5093358;28;20023;-74
2022/09/11 06:05:39;;;;;;;2.13;1.45;;;13.10;99.90;;;;;;5113348;28;20051;-74
2022/09/11 06:08:09;;;;;;;0.20;0.20;;;13.30;99.90;;;;;;5113667;28;20016;-74
2022/09/11 06:10:46;;;;;;;;;;;13.30;99.90;;;;;;5095551;28;20031;-74
2022/09/11 06:13:12;;;;;;;1.17;1.17;;;13.40;99.90;;;;;;5095100;28;20416;-74
2022/09/11 06:15:47;;;;;;;0.65;0.50;;;13.50;99.90;;;;;;5115312;28;20070;-74
2022/09/11 06:18:15;;;;;;;3.00;0.88;;;13.40;99.90;;;;;;5117556;28;20028;-74
2022/09/11 06:20:41;;;;;;;0.35;0.35;;;13.60;99.90;;;;;;5117225;28;20422;-74
2022/09/11 06:23:09;;;;;;;0.95;0.63;;;13.50;99.90;;;;;;5119114;28;20050;-74
2022/09/11 06:25:35;;;;;;;0.97;0.33;;;13.50;99.90;;;;;;5117414;28;20020;-74
2022/09/11 06:28:02;;;;;;;0.30;0.30;;;13.40;99.90;;;;;;5099710;28;20281;-74
2022/09/11 06:30:28;;;;;;;1.55;0.85;;;;;;;;;;5127085;28;20032;-74
2022/09/11 06:32:56;;;;;;;1.20;0.32;;;13.30;99.90;;;;;;5119318;28;20084;-74
2022/09/11 06:35:25;;;;;;;4.25;0.52;;;13.20;99.90;;;;;;5100359;28;20019;-74
2022/09/11 06:37:50;;;;;;;1.13;0.73;;;13.30;99.90;;;;;;5121277;28;20128;-74
2022/09/11 06:40:17;;;;;;;0.30;0.30;;;;;;;;;;5098710;28;20153;-73
2022/09/11 06:42:42;;;;;;;2.58;1.63;;;13.30;99.90;;;;;;5116867;28;20020;-72
2022/09/11 06:45:09;;;;;;;0.30;0.30;;;13.30;99.90;;;;;;5116846;28;20023;-73
2022/09/11 06:47:34;;;;;;;0.47;0.47;;;13.40;99.90;;;;;;5116751;28;20036;-73
2022/09/11 06:50:00;;;;;;;0.30;0.30;;;13.50;99.90;;;;;;5116549;28;20476;-73
2022/09/11 06:52:26;;;;;;;1.00;0.20;;;13.60;99.90;;;;;;5116352;28;20034;-73
2022/09/11 06:54:52;;;;;;;1.48;1.33;;;13.60;99.90;;;;;;5116495;28;20028;-73
2022/09/11 06:57:18;;;;;;;5.38;0.82;;;13.80;99.90;;;;;;5116623;28;20026;-73
2022/09/11 06:59:44;;;;;;;0.65;0.65;;;13.90;99.90;;;;;;5116551;28;20438;-73
2022/09/11 07:02:10;;;;;;;0.57;0.57;;;14.00;99.90;;;;;;5116555;28;20480;-73
2022/09/11 07:04:36;;;;;;;1.67;0.28;;;14.00;99.90;;;;;;5098727;28;20054;-73
2022/09/11 07:07:01;;;;;;;0.32;0.32;;;14.10;99.90;;;;;;5116279;28;20051;-73
2022/09/11 07:09:27;;;;;;;0.10;0.10;;;14.50;99.90;;;;;;5116211;28;20106;-74
2022/09/11 07:11:52;;;;;;;0.17;0.17;;;14.40;99.90;;;;;;5116305;28;20059;-73
2022/09/11 07:14:22;;;;;;;0.20;0.20;;;14.50;99.90;;;;;;5116348;28;20164;-73
2022/09/11 07:16:49;;;;;;;0.17;0.17;;;14.60;99.90;;;;;;5097799;28;20114;-73
2022/09/11 07:19:17;;;;;;;0.20;0.20;;;14.70;99.90;;;;;;5116014;28;20028;-73
2022/09/11 07:21:43;;;;;;;0.43;0.43;;;15.60;99.90;;;;;;5117450;28;20027;-75
2022/09/11 07:24:09;;;;;;;0.25;0.25;;;14.90;99.90;;;;;;5115904;28;20023;-73
2022/09/11 07:26:35;;;;;;;0.30;0.20;;;15.00;99.90;;;;;;5117474;28;20089;-73
2022/09/11 07:29:01;;;;;;;0.73;0.73;;;15.10;99.90;;;;;;5115966;28;20018;-73
2022/09/11 07:31:29;;;;;;;0.55;0.28;;;15.30;99.90;;;;;;5115871;28;20034;-74
2022/09/11 07:33:55;;;;;;;0.40;0.40;;;15.40;99.90;;;;;;5097510;28;20051;-74
2022/09/11 07:36:25;;;;;;;0.65;0.65;;;15.50;99.90;;;;;;5097568;28;20077;-73
2022/09/11 07:38:51;;;;;;;0.22;0.20;;;15.60;99.90;;;;;;5116014;28;20016;-74
2022/09/11 07:41:20;;;;;;;0.40;0.40;;;15.70;99.90;;;;;;5097306;28;20034;-73
2022/09/11 07:43:47;;;;;;;0.28;0.28;;;15.70;99.90;;;;;;5115612;28;20089;-74
2022/09/11 07:46:14;;;;;;;0.20;0.20;;;15.80;99.90;;;;;;5116174;28;20035;-75
2022/09/11 07:48:41;;;;;;;0.63;0.40;;;15.90;99.90;;;;;;5122161;28;20362;-73
2022/09/11 07:51:09;;;;;;;1.55;0.40;;;16.10;99.90;;;;;;5117807;28;20039;-73
2022/09/11 07:53:46;;;;;;;0.10;0.10;;;16.20;99.90;;;;;;5097726;28;20370;-73
2022/09/11 07:56:22;;;;;;;0.47;0.47;;;16.30;99.90;;;;;;5099384;28;20466;-73
2022/09/11 07:58:48;;;;;;;0.28;0.28;;;16.30;99.90;;;;;;5122421;28;20075;-74
2022/09/11 08:01:17;;;;;;;8.30;0.20;;;16.40;99.90;;;;;;5124312;28;20023;-74
2022/09/11 08:03:43;;;;;;;0.20;0.20;;;16.40;99.90;;;;;;5121006;28;20472;-73
2022/09/11 08:06:15;;;;;;;0.20;0.20;;;16.40;99.90;;;;;;5121899;28;20165;-73
2022/09/11 08:08:43;;;;;;;0.20;0.20;;;16.50;99.90;;;;;;5125861;28;20016;-73
2022/09/11 08:11:11;;;;;;;0.10;0.10;;;16.60;99.90;;;;;;5125480;28;20031;-74
2022/09/11 08:13:37;;;;;;;0.30;0.30;;;16.60;99.90;;;;;;5122673;28;20015;-73
2022/09/11 08:16:04;;;;;;;1.08;0.75;;;16.70;99.90;;;;;;5120110;28;20276;-75
2022/09/11 08:18:30;;;;;;;1.27;0.63;;;16.80;99.90;;;;;;5115029;28;20024;-74
2022/09/11 08:21:09;;;;;;;0.28;0.20;;;16.90;99.90;;;;;;5114399;28;20027;-75
2022/09/11 08:23:36;;;;;;;1.30;0.30;;;17.10;99.90;;;;;;5114577;28;20108;-74
2022/09/11 08:26:06;;;;;;;0.47;0.22;;;17.30;99.90;;;;;;5098212;28;20426;-74
2022/09/11 08:28:33;;;;;;;0.75;0.63;;;18.90;99.90;;;;;;5117064;28;20051;-76
2022/09/11 08:31:00;;;;;;;3.40;0.30;;;19.20;99.90;;;;;;5101101;28;20336;-74
2022/09/11 08:33:27;;;;;;;0.85;0.10;;;21.80;99.90;;;;;;5122513;28;20019;-76
2022/09/11 08:36:02;;;;;;;1.65;0.60;;;21.70;99.90;;;;;;5101693;28;20032;-77
2022/09/11 08:38:28;;;;;;;1.00;0.30;;;23.00;99.90;;;;;;5097177;28;20034;-75
2022/09/11 08:40:57;;;;;;;0.10;0.10;;;23.60;99.40;;;;;;5101002;28;20028;-75
2022/09/11 08:43:31;;;;;;;0.10;0.10;;;23.20;92.50;;;;;;5115564;28;20043;-75
2022/09/11 08:46:01;;;;;;;1.85;0.63;;;23.10;94.10;;;;;;5116923;28;20026;-77
2022/09/11 08:48:44;;;;;;;0.88;0.40;;;23.00;90.50;;;;;;5116776;28;20024;-75
2022/09/11 08:51:15;;;;;;;0.10;0.10;;;22.90;93.20;;;;;;5096243;28;20035;-74
2022/09/11 08:53:41;;;;;;;0.55;0.20;;;23.10;92.30;;;;;;5106415;28;20019;-75
2022/09/11 08:56:22;;;;;;;0.15;0.15;;;23.10;92.50;;;;;;5105879;28;20030;-76
2022/09/11 08:58:56;;;;;;;0.32;0.20;;;23.20;92.00;;;;;;5113867;28;20487;-77
2022/09/11 09:01:38;;;;;;;0.10;0.10;;;23.40;94.10;;;;;;5116160;28;20404;-75
2022/09/11 09:04:16;;;;;;;0.20;0.20;;;23.60;93.70;;;;;;5092097;28;20140;-77
2022/09/11 09:07:20;;;;;;;0.10;0.03;;;23.80;91.60;;;;;;5092567;28;20038;-74
2022/09/11 09:10:02;;;;;;;0.52;0.30;;;23.40;89.40;;;;;;5093645;28;20032;-74
2022/09/11 09:12:31;;;;;;;0.08;0.08;;;;;;;;;;5095407;28;20024;-74
2022/09/11 09:15:12;;;;;;;0.65;0.38;;;22.20;97.50;;;;;;5093873;28;20036;-75
2022/09/11 09:18:01;;;;;;;0.20;0.10;;;22.20;95.90;;;;;;5093374;28;20054;-73
2022/09/11 09:20:36;;;;;;;3.78;0.20;;;21.40;96.10;;;;;;5094747;28;20038;-75
2022/09/11 09:23:17;;;;;;;0.82;0.17;;;20.30;99.90;;;;;;5092707;28;20052;-76
2022/09/11 09:25:44;;;;;;;0.28;0.10;;;20.20;99.90;;;;;;5095677;28;20031;-75
2022/09/11 09:28:20;;;;;;;2.35;0.38;;;19.70;99.90;;;;;;5095585;28;20024;-75
2022/09/11 09:30:52;;;;;;;1.27;0.20;;;19.40;99.90;;;;;;5092122;28;20119;-74
2022/09/11 09:33:41;;;;;;;0.15;0.15;;;19.10;99.90;;;;;;5097345;28;20031;-75
2022/09/11 09:36:12;;;;;;;0.10;0.10;;;19.00;99.90;;;;;;5094478;28;20044;-74
2022/09/11 09:38:38;;;;;;;0.30;0.25;;;18.80;99.90;;;;;;5093392;28;20069;-76
2022/09/11 09:41:09;;;;;;;0.30;0.30;;;18.80;99.90;;;;;;5092530;28;20031;-75
2022/09/11 09:44:03;;;;;;;0.50;0.50;;;18.90;99.90;;;;;;5095951;28;20035;-75
2022/09/11 09:46:47;;;;;;;0.20;0.20;;;19.00;99.90;;;;;;5063153;28;20039;-74
2022/09/11 09:49:34;;;;;;;0.20;0.20;;;19.00;99.90;;;;;;5096023;28;20024;-75
2022/09/11 09:52:04;;;;;;;0.03;0.00;;;;;;;;;;5096341;28;20093;-77
2022/09/11 09:54:32;;;;;;;0.20;0.00;;;20.20;99.90;;;;;;5099104;28;20027;-75
2022/09/11 09:57:03;;;;;;;0.03;0.03;;;20.90;99.90;;;;;;5097499;28;20075;-74
2022/09/11 09:59:38;;;;;;;0.35;0.35;;;21.30;99.90;;;;;;5097325;28;20020;-75
2022/09/11 10:02:04;;;;;;;0.98;0.28;;;21.20;99.90;;;;;;5097153;28;20028;-76
2022/09/11 10:04:31;;;;;;;0.10;0.10;;;;;;;;;;5107277;28;20047;-75
2022/09/11 10:07:13;;;;;;;0.08;0.08;;;21.90;99.90;;;;;;5100875;28;20019;-75
2022/09/11 10:09:48;;;;;;;0.10;0.10;;;21.90;99.90;;;;;;5103577;28;20353;-74
2022/09/11 10:12:20;;;;;;;0.30;0.00;;;22.00;99.90;;;;;;5098655;28;20028;-75
2022/09/11 10:14:58;;;;;;;0.63;0.10;;;22.20;99.90;;;;;;5099083;28;20123;-74
2022/09/11 10:17:31;;;;;;;0.52;0.52;;;22.80;99.30;;;;;;5118496;28;20077;-74
2022/09/11 10:20:18;;;;;;;0.20;0.08;;;23.10;94.50;;;;;;5116867;28;20032;-74
2022/09/11 10:22:50;;;;;;;5.78;0.20;;;22.80;93.20;;;;;;5101505;28;20046;-75
2022/09/11 10:25:21;;;;;;;0.40;0.40;;;23.00;95.20;;;;;;5099057;28;20425;-75
2022/09/11 10:28:01;;;;;;;0.10;0.10;;;22.80;91.80;;;;;;5122875;28;20436;-75
2022/09/11 10:30:28;;;;;;;;;;;23.10;94.10;;;;;;5103617;28;20081;-73
2022/09/11 10:32:55;;;;;;;0.25;0.25;;;23.50;91.40;;;;;;5100094;28;19903;-76
2022/09/11 10:35:26;;;;;;;0.30;0.30;;;23.20;86.50;;;;;;5098534;28;20098;-75
2022/09/11 10:38:16;;;;;;;0.10;0.10;;;22.80;86.00;;;;;;5117919;28;20020;-73
2022/09/11 10:40:53;;;;;;;0.17;0.15;;;22.60;88.60;;;;;;5108852;28;20031;-75
2022/09/11 10:43:25;;;;;;;0.17;0.17;;;22.30;92.60;;;;;;5106165;28;20023;-73
2022/09/11 10:46:03;;;;;;;0.38;0.20;;;22.20;90.70;;;;;;5106706;28;20023;-74
2022/09/11 10:48:29;;;;;;;0.10;0.10;;;21.90;90.20;;;;;;5127085;28;20075;-75
2022/09/11 10:51:10;;;;;;;0.22;0.22;;;22.10;92.60;;;;;;5103184;28;20031;-76
2022/09/11 10:53:50;;;;;;;0.60;0.32;;;22.20;93.30;;;;;;5118902;28;20027;-74
2022/09/11 10:56:16;;;;;;;0.38;0.30;;;22.60;91.90;;;;;;5120889;28;20035;-76
2022/09/11 10:58:46;;;;;;;0.00;0.00;;;22.70;89.50;;;;;;5116466;28;20027;-73
2022/09/11 11:01:12;;;;;;;0.13;0.13;;;22.90;90.10;;;;;;5116094;28;20115;-74
2022/09/11 11:03:38;;;;;;;0.38;0.38;;;22.90;87.00;;;;;;5117651;28;20096;-73
2022/09/11 11:06:24;;;;;;;0.28;0.20;;;22.40;89.80;;;;;;5119519;28;20087;-74
2022/09/11 11:09:34;;;;;;;0.25;0.25;;;22.50;90.80;;;;;;5116792;28;20384;-75
2022/09/11 11:12:39;;;;;;;0.00;0.00;;;22.50;89.10;;;;;;5121519;28;20107;-75
2022/09/11 11:15:29;;;;;;;0.35;0.20;;;22.30;89.80;;;;;;5126294;28;20024;-75
2022/09/11 11:17:57;;;;;;;0.25;0.25;;;22.40;87.10;;;;;;5104147;28;20102;-74
2022/09/11 11:20:44;;;;;;;0.65;0.30;;;21.70;87.00;;;;;;5124676;28;20031;-74
2022/09/11 11:23:53;;;;;;;0.15;0.13;;;21.20;89.90;;;;;;5107022;28;20020;-74
2022/09/11 11:26:41;;;;;;;0.10;0.10;;;21.10;92.70;;;;;;5077451;28;20442;-74
2022/09/11 11:29:18;;;;;;;0.55;0.40;;;21.50;92.80;;;;;;5126318;28;20031;-74
2022/09/11 11:31:54;;;;;;;0.35;0.10;;;21.60;90.50;;;;;;5108354;28;20023;-74
2022/09/11 11:34:38;;;;;;;0.47;0.17;;;21.60;91.00;;;;;;5126203;28;20043;-74
2022/09/11 11:37:16;;;;;;;0.10;0.10;;;21.40;90.80;;;;;;5127066;28;20016;-75
2022/09/11 11:39:54;;;;;;;0.10;0.10;;;21.50;90.30;;;;;;5123640;28;20020;-73
2022/09/11 11:42:28;;;;;;;1.77;0.10;;;21.60;90.60;;;;;;5096947;28;20038;-73
2022/09/11 11:45:02;;;;;;;0.20;0.20;;;21.80;90.50;;;;;;5116177;28;20375;-73
2022/09/11 11:47:37;;;;;;;0.30;0.13;;;22.00;87.60;;;;;;5099924;28;20034;-74
2022/09/11 11:50:27;;;;;;;0.30;0.28;;;22.30;86.40;;;;;;5098365;28;20035;-73
2022/09/11 11:53:11;;;;;;;0.10;0.10;;;22.70;79.20;;;;;;5096940;28;20020;-74
2022/09/11 11:56:01;;;;;;;0.90;0.90;;;23.60;78.60;;;;;;5120046;28;20023;-74
2022/09/11 11:58:48;;;;;;;0.17;0.17;;;25.10;75.60;;;;;;5116536;28;20031;-74
2022/09/11 12:01:30;;;;;;;0.00;0.00;;;26.70;69.80;;;;;;5100593;28;20338;-75
2022/09/11 12:04:02;;;;;;;0.00;0.00;;;27.70;59.90;;;;;;5123782;28;20055;-74
2022/09/11 12:06:28;;;;;;;0.00;0.00;;;27.80;60.60;;;;;;5107093;28;20023;-74
2022/09/11 12:08:56;;;;;;;0.22;0.10;;;29.00;59.90;;;;;;5107531;28;20038;-74
2022/09/11 12:11:30;;;;;;;0.10;0.10;;;29.60;57.00;;;;;;5124415;28;20043;-73
2022/09/11 12:13:57;;;;;;;0.70;0.17;;;30.50;53.50;;;;;;5124520;28;20024;-74
2022/09/11 12:16:33;;;;;;;0.00;0.00;;;30.60;53.60;;;;;;5124307;28;20019;-74
2022/09/11 12:19:11;;;;;;;0.10;0.10;;;31.10;51.00;;;;;;5106761;28;20042;-73
2022/09/11 12:22:01;;;;;;;0.10;0.10;;;31.10;50.50;;;;;;5123826;28;20034;-74
2022/09/11 12:24:53;;;;;;;0.45;0.10;;;30.50;50.90;;;;;;5123738;28;20031;-76
2022/09/11 12:27:34;;;;;;;0.70;0.30;;;30.10;52.40;;;;;;5123796;28;20037;-75
2022/09/11 12:30:15;;;;;;;0.10;0.10;;;29.50;53.30;;;;;;5123559;28;20027;-74
2022/09/11 12:32:55;;;;;;;0.10;0.10;;;30.20;51.50;;;;;;5124021;28;20023;-74
2022/09/11 12:35:42;;;;;;;0.20;0.20;;;30.80;51.10;;;;;;5115688;28;20379;-75
2022/09/11 12:38:07;;;;;;;5.05;0.20;;;29.90;53.00;;;;;;5114224;28;20388;-76
2022/09/11 12:40:47;;;;;;;0.45;0.30;;;28.10;53.40;;;;;;5114232;28;20020;-76
2022/09/11 12:43:33;;;;;;;0.15;0.15;;;28.40;54.50;;;;;;5095891;28;20429;-76
2022/09/11 12:46:04;;;;;;;0.22;0.22;;;27.60;53.20;;;;;;5096704;28;20076;-78
2022/09/11 12:48:43;;;;;;;1.60;0.15;;;27.60;55.30;;;;;;5114237;28;20024;-75
2022/09/11 12:51:25;;;;;;;3.00;0.13;;;28.00;56.70;;;;;;5114029;28;20035;-76
2022/09/11 12:53:59;;;;;;;0.10;0.10;;;27.40;55.70;;;;;;5113890;28;20023;-74
2022/09/11 12:56:28;;;;;;;0.00;0.00;;;26.30;57.90;;;;;;5095671;28;20038;-75
2022/09/11 12:58:58;;;;;;;0.00;0.00;;;25.10;60.00;;;;;;5114010;28;20032;-74
2022/09/11 13:01:29;;;;;;;0.45;0.30;;;24.40;62.10;;;;;;5095772;28;20077;-75
2022/09/11 13:04:00;;;;;;;0.15;0.10;;;25.40;61.10;;;;;;5113718;28;20100;-76
2022/09/11 13:06:50;;;;;;;0.00;0.00;;;26.70;57.60;;;;;;5114146;28;20426;-75
2022/09/11 13:09:18;;;;;;;0.35;0.00;;;27.80;54.80;;;;;;5113728;28;20019;-75
2022/09/11 13:11:50;;;;;;;0.00;0.00;;;28.90;53.20;;;;;;5095308;28;20036;-74
2022/09/11 13:14:46;;;;;;;0.45;0.10;;;29.40;51.30;;;;;;5095221;28;20015;-74
2022/09/11 13:17:24;;;;;;;0.52;0.13;;;30.00;50.70;;;;;;5095436;28;20454;-75